createdAt,value
2017-02-27T00:00:53.861Z,83.93
2017-02-27T00:02:03.779Z,85.17
2017-02-27T00:03:13.640Z,86.22
2017-02-27T00:04:23.112Z,85.93
2017-02-27T00:05:32.212Z,85.08
2017-02-27T00:06:41.684Z,84.31
2017-02-27T00:07:50.767Z,84.5
2017-02-27T00:08:59.850Z,84.12
2017-02-27T00:10:09.332Z,84.31
2017-02-27T00:11:18.489Z,83.84
2017-02-27T00:12:27.577Z,84.41
2017-02-27T00:13:37.045Z,84.41
2017-02-27T00:14:47.302Z,84.12
2017-02-27T00:15:56.783Z,83.74
2017-02-27T00:17:05.889Z,83.65
2017-02-27T00:18:15.365Z,83.45
2017-02-27T00:19:24.844Z,83.74
2017-02-27T00:20:34.705Z,83.55
2017-02-27T00:21:43.800Z,83.74
2017-02-27T00:22:53.659Z,83.26
2017-02-27T00:24:03.525Z,83.26
2017-02-27T00:25:13.012Z,83.93
2017-02-27T00:26:22.859Z,83.93
2017-02-27T00:27:32.726Z,83.74
2017-02-27T00:28:41.828Z,83.74
2017-02-27T00:29:51.671Z,83.74
2017-02-27T00:31:01.523Z,83.74
2017-02-27T00:32:11.384Z,84.22
2017-02-27T00:33:21.260Z,84.03
2017-02-27T00:34:31.127Z,84.69
2017-02-27T00:35:40.238Z,84.6
2017-02-27T00:36:49.715Z,85.08
2017-02-27T00:37:59.173Z,86.12
2017-02-27T00:39:08.256Z,86.69
2017-02-27T00:40:18.492Z,85.36
2017-02-27T00:41:28.006Z,86.41
2017-02-27T00:42:38.263Z,85.17
2017-02-27T00:43:47.349Z,84.88
2017-02-27T00:44:56.816Z,85.08
2017-02-27T00:46:06.689Z,84.88
2017-02-27T00:47:16.539Z,85.27
2017-02-27T00:48:26.027Z,85.27
2017-02-27T00:49:35.872Z,84.98
2017-02-27T00:50:44.580Z,84.98
2017-02-27T00:51:54.452Z,84.98
2017-02-27T00:53:04.690Z,84.98
2017-02-27T00:54:13.769Z,85.17
2017-02-27T00:55:23.654Z,85.08
2017-02-27T00:56:32.731Z,85.36
2017-02-27T00:57:41.831Z,84.79
2017-02-27T00:58:51.674Z,84.98
2017-02-27T01:00:01.146Z,85.55
2017-02-27T01:01:11.385Z,85.84
2017-02-27T01:02:21.666Z,85.64
2017-02-27T01:03:30.782Z,85.36
2017-02-27T01:04:40.620Z,85.64
2017-02-27T01:05:49.354Z,85.64
2017-02-27T01:06:59.205Z,86.03
2017-02-27T01:08:08.690Z,85.93
2017-02-27T01:09:18.930Z,85.93
2017-02-27T01:10:28.775Z,85.74
2017-02-27T01:11:38.246Z,86.22
2017-02-27T01:12:48.110Z,85.84
2017-02-27T01:13:57.206Z,85.93
2017-02-27T01:15:05.895Z,86.32
2017-02-27T01:16:15.761Z,86.6
2017-02-27T01:17:25.240Z,89.07
2017-02-27T01:18:34.323Z,87.36
2017-02-27T01:19:43.421Z,87.27
2017-02-27T01:20:53.271Z,87.36
2017-02-27T01:22:01.985Z,86.12
2017-02-27T01:23:11.456Z,86.22
2017-02-27T01:24:20.965Z,86.12
2017-02-27T01:25:30.041Z,86.22
2017-02-27T01:26:39.544Z,86.6
2017-02-27T01:27:48.265Z,86.79
2017-02-27T01:28:57.732Z,86.32
2017-02-27T01:30:07.588Z,86.22
2017-02-27T01:31:16.668Z,86.03
2017-02-27T01:32:25.770Z,86.22
2017-02-27T01:33:36.018Z,86.32
2017-02-27T01:34:45.096Z,86.32
2017-02-27T01:37:54.162Z,86.69
2017-02-27T01:53:46.235Z,86.98
2017-02-27T01:54:55.721Z,87.46
2017-02-27T01:56:05.590Z,89.94
2017-02-27T01:57:15.055Z,88.41
2017-02-27T01:58:24.170Z,87.74
2017-02-27T01:59:34.043Z,86.41
2017-02-27T02:00:43.887Z,86.51
2017-02-27T02:01:54.133Z,86.79
2017-02-27T02:03:03.997Z,86.6
2017-02-27T02:04:14.629Z,86.88
2017-02-27T02:05:24.886Z,86.51
2017-02-27T02:06:33.979Z,86.69
2017-02-27T02:07:43.068Z,86.79
2017-02-27T02:08:52.538Z,87.07
2017-02-27T02:10:02.021Z,86.88
2017-02-27T02:11:11.116Z,86.88
2017-02-27T02:12:20.225Z,86.88
2017-02-27T02:13:29.325Z,86.98
2017-02-27T02:14:39.171Z,86.6
2017-02-27T02:15:48.652Z,86.69
2017-02-27T02:16:58.880Z,86.32
2017-02-27T02:18:07.978Z,86.32
2017-02-27T02:19:17.846Z,86.6
2017-02-27T02:20:26.946Z,86.98
2017-02-27T02:21:36.047Z,86.51
2017-02-27T02:22:45.526Z,86.32
2017-02-27T02:23:56.151Z,86.12
2017-02-27T02:25:04.860Z,86.03
2017-02-27T02:26:14.716Z,86.22
2017-02-27T02:27:24.591Z,86.12
2017-02-27T02:28:33.679Z,85.84
2017-02-27T02:29:43.537Z,85.74
2017-02-27T02:30:52.266Z,86.88
2017-02-27T02:32:02.132Z,87.65
2017-02-27T02:33:11.594Z,89.55
2017-02-27T02:34:20.679Z,87.36
2017-02-27T02:35:30.170Z,86.98
2017-02-27T02:36:39.636Z,86.6
2017-02-27T02:37:48.751Z,86.41
2017-02-27T02:38:58.617Z,86.6
2017-02-27T02:40:08.852Z,86.22
2017-02-27T02:41:17.935Z,85.84
2017-02-27T02:42:27.840Z,85.55
2017-02-27T02:43:37.322Z,85.74
2017-02-27T02:44:46.800Z,85.64
2017-02-27T02:45:56.671Z,85.08
2017-02-27T02:47:06.533Z,84.69
2017-02-27T02:48:15.625Z,84.79
2017-02-27T02:49:25.482Z,85.27
2017-02-27T02:50:35.328Z,85.08
2017-02-27T02:51:44.421Z,85.27
2017-02-27T02:52:54.275Z,84.41
2017-02-27T02:54:03.744Z,84.5
2017-02-27T02:55:13.619Z,84.6
2017-02-27T02:56:22.712Z,84.79
2017-02-27T02:57:32.557Z,84.69
2017-02-27T02:58:41.645Z,83.93
2017-02-27T02:59:52.266Z,83.65
2017-02-27T03:01:02.515Z,83.74
2017-02-27T03:02:11.637Z,84.41
2017-02-27T03:03:21.919Z,83.55
2017-02-27T03:04:31.452Z,83.36
2017-02-27T03:05:41.716Z,83.17
2017-02-27T03:06:51.215Z,83.93
2017-02-27T03:08:00.698Z,85.12
2017-02-27T03:09:09.778Z,85.46
2017-02-27T03:10:19.235Z,85.27
2017-02-27T03:11:29.858Z,85.02
2017-02-27T03:12:38.960Z,84.6
2017-02-27T03:13:48.052Z,83.74
2017-02-27T03:14:57.141Z,83.4
2017-02-27T03:16:06.626Z,83.93
2017-02-27T03:17:16.108Z,83.55
2017-02-27T03:18:24.820Z,83.74
2017-02-27T03:19:34.685Z,83.02
2017-02-27T03:20:43.389Z,83.07
2017-02-27T03:21:52.884Z,82.98
2017-02-27T03:23:01.976Z,83.21
2017-02-27T03:24:12.225Z,82.69
2017-02-27T03:25:21.690Z,82.83
2017-02-27T03:26:31.543Z,82.35
2017-02-27T03:27:41.435Z,82.5
2017-02-27T03:28:50.553Z,82.5
2017-02-27T03:29:59.840Z,82.6
2017-02-27T03:31:08.967Z,82.64
2017-02-27T03:32:17.670Z,82.6
2017-02-27T03:33:27.147Z,82.41
2017-02-27T03:34:37.393Z,82.31
2017-02-27T03:35:47.242Z,82.41
2017-02-27T03:36:56.739Z,82.69
2017-02-27T03:38:06.223Z,82.12
2017-02-27T03:39:15.717Z,82.12
2017-02-27T03:40:24.823Z,82.31
2017-02-27T03:41:34.322Z,81.88
2017-02-27T03:42:43.792Z,84.36
2017-02-27T03:43:53.647Z,83.97
2017-02-27T03:45:02.368Z,83.5
2017-02-27T03:46:11.470Z,84.36
2017-02-27T03:47:20.556Z,82.54
2017-02-27T03:48:30.025Z,82.17
2017-02-27T03:49:39.924Z,82.73
2017-02-27T03:50:49.402Z,83.31
2017-02-27T03:51:58.892Z,82.64
2017-02-27T03:53:07.986Z,82.03
2017-02-27T03:54:17.090Z,82.26
2017-02-27T03:55:26.924Z,82.5
2017-02-27T03:56:36.007Z,82.21
2017-02-27T03:57:45.856Z,81.93
2017-02-27T03:58:55.728Z,81.84
2017-02-27T04:00:05.590Z,82.07
2017-02-27T04:01:15.059Z,82.07
2017-02-27T04:02:24.543Z,82.31
2017-02-27T04:03:34.036Z,82.54
2017-02-27T04:04:43.519Z,82.5
2017-02-27T04:05:52.635Z,82.31
2017-02-27T04:07:02.118Z,82.31
2017-02-27T04:08:16.499Z,81.93
2017-02-27T04:09:31.751Z,81.84
2017-02-27T04:10:54.145Z,82.03
2017-02-27T04:12:11.752Z,81.84
2017-02-27T04:13:29.198Z,82.41
2017-02-27T04:14:38.673Z,82.69
2017-02-27T04:15:50.998Z,82.31
2017-02-27T04:17:06.241Z,82.12
2017-02-27T04:18:15.539Z,82.5
2017-02-27T04:19:25.544Z,84.22
2017-02-27T04:20:34.653Z,85.08
2017-02-27T04:21:44.522Z,86.6
2017-02-27T04:22:54.398Z,85.36
2017-02-27T04:24:03.886Z,83.55
2017-02-27T04:25:13.764Z,82.98
2017-02-27T04:26:22.482Z,82.5
2017-02-27T04:27:32.354Z,83.36
2017-02-27T04:28:41.832Z,82.98
2017-02-27T04:29:51.300Z,83.07
2017-02-27T04:31:00.788Z,83.93
2017-02-27T04:32:10.639Z,83.55
2017-02-27T04:33:20.876Z,83.17
2017-02-27T04:34:29.584Z,82.89
2017-02-27T04:35:39.473Z,82.5
2017-02-27T04:36:48.554Z,82.31
2017-02-27T04:37:58.019Z,82.21
2017-02-27T04:39:08.287Z,82.12
2017-02-27T04:40:18.535Z,82.31
2017-02-27T04:41:28.780Z,82.5
2017-02-27T04:42:38.276Z,82.12
2017-02-27T04:43:48.119Z,81.93
2017-02-27T04:44:57.602Z,81.93
2017-02-27T04:46:07.069Z,82.03
2017-02-27T04:47:16.562Z,81.93
2017-02-27T04:48:26.842Z,81.93
2017-02-27T04:49:35.931Z,82.31
2017-02-27T04:50:45.412Z,81.84
2017-02-27T04:51:55.274Z,81.93
2017-02-27T04:53:04.728Z,81.93
2017-02-27T04:54:14.186Z,82.21
2017-02-27T04:55:23.290Z,81.74
2017-02-27T04:56:32.776Z,81.74
2017-02-27T04:57:42.266Z,84.31
2017-02-27T04:58:52.096Z,84.88
2017-02-27T05:00:01.952Z,84.6
2017-02-27T05:01:12.182Z,83.26
2017-02-27T05:02:21.638Z,82.89
2017-02-27T05:03:31.503Z,82.41
2017-02-27T05:04:42.107Z,82.89
2017-02-27T05:05:51.577Z,82.6
2017-02-27T05:07:00.697Z,82.69
2017-02-27T05:08:10.552Z,82.89
2017-02-27T05:09:19.646Z,82.69
2017-02-27T05:10:29.125Z,82.5
2017-02-27T05:11:38.590Z,82.89
2017-02-27T05:12:48.086Z,82.69
2017-02-27T05:13:58.703Z,82.69
2017-02-27T05:15:08.191Z,82.89
2017-02-27T05:16:18.429Z,83.17
2017-02-27T05:17:28.315Z,83.93
2017-02-27T05:18:37.401Z,83.45
2017-02-27T05:19:46.488Z,83.74
2017-02-27T05:20:56.349Z,84.12
2017-02-27T05:22:06.618Z,84.41
2017-02-27T05:23:15.695Z,84.22
2017-02-27T05:24:25.171Z,83.93
2017-02-27T05:25:34.255Z,84.03
2017-02-27T05:26:42.978Z,84.56
2017-02-27T05:27:52.857Z,84.31
2017-02-27T05:29:02.767Z,85.08
2017-02-27T05:30:12.246Z,84.84
2017-02-27T05:31:21.338Z,85.03
2017-02-27T05:32:31.217Z,84.84
2017-02-27T05:33:40.310Z,84.94
2017-02-27T05:34:49.019Z,85.03
2017-02-27T05:35:58.520Z,85.41
2017-02-27T05:37:07.614Z,85.7
2017-02-27T05:38:17.117Z,85.99
2017-02-27T05:39:25.841Z,85.8
2017-02-27T05:40:36.097Z,86.18
2017-02-27T05:41:45.608Z,86.94
2017-02-27T05:42:55.087Z,85.99
2017-02-27T05:44:04.175Z,85.51
2017-02-27T05:45:14.020Z,85.51
2017-02-27T05:46:23.875Z,85.41
2017-02-27T05:47:34.481Z,85.41
2017-02-27T05:48:43.938Z,84.75
2017-02-27T05:49:53.407Z,85.03
2017-02-27T05:51:02.891Z,85.03
2017-02-27T05:52:11.973Z,85.03
2017-02-27T05:53:21.838Z,85.03
2017-02-27T05:54:32.104Z,84.46
2017-02-27T05:55:40.826Z,84.56
2017-02-27T05:56:49.526Z,84.46
2017-02-27T05:57:58.616Z,84.17
2017-02-27T05:59:08.847Z,82.5
2017-02-27T06:00:17.947Z,81.74
2017-02-27T06:01:27.430Z,82.03
2017-02-27T06:02:37.725Z,81.65
2017-02-27T06:03:47.191Z,81.84
2017-02-27T06:04:56.280Z,81.93
2017-02-27T06:06:06.139Z,81.84
2017-02-27T06:07:15.988Z,81.74
2017-02-27T06:08:24.687Z,81.26
2017-02-27T06:09:34.188Z,80.88
2017-02-27T06:10:43.659Z,80.98
2017-02-27T06:11:53.545Z,81.26
2017-02-27T06:13:03.026Z,81.36
2017-02-27T06:14:12.496Z,81.74
2017-02-27T06:15:22.358Z,81.65
2017-02-27T06:16:32.219Z,81.84
2017-02-27T06:17:41.718Z,82.12
2017-02-27T06:18:51.216Z,81.84
2017-02-27T06:20:00.715Z,81.65
2017-02-27T06:21:09.798Z,81.36
2017-02-27T06:22:19.641Z,81.74
2017-02-27T06:23:28.344Z,82.21
2017-02-27T06:24:37.424Z,82.21
2017-02-27T06:25:46.919Z,81.84
2017-02-27T06:26:56.803Z,82.31
2017-02-27T06:28:06.289Z,82.21
2017-02-27T06:29:16.145Z,82.41
2017-02-27T06:30:26.002Z,82.41
2017-02-27T06:31:35.482Z,82.03
2017-02-27T06:32:44.596Z,82.21
2017-02-27T06:33:54.059Z,82.03
2017-02-27T06:35:03.943Z,82.21
2017-02-27T06:36:13.412Z,81.93
2017-02-27T06:37:22.115Z,82.21
2017-02-27T06:38:31.587Z,82.12
2017-02-27T06:39:41.819Z,82.5
2017-02-27T06:40:50.905Z,82.41
2017-02-27T06:42:01.144Z,82.41
2017-02-27T06:43:11.029Z,82.21
2017-02-27T06:44:20.508Z,82.31
2017-02-27T06:45:30.388Z,81.93
2017-02-27T06:46:40.650Z,81.93
2017-02-27T06:47:50.111Z,82.12
2017-02-27T06:49:00.335Z,81.36
2017-02-27T06:50:09.813Z,80.98
2017-02-27T06:51:19.297Z,80.88
2017-02-27T06:52:28.778Z,81.55
2017-02-27T06:53:38.256Z,82.21
2017-02-27T06:54:48.086Z,82.69
2017-02-27T06:55:57.968Z,82.31
2017-02-27T06:57:07.837Z,80.98
2017-02-27T06:58:17.691Z,80.41
2017-02-27T06:59:26.768Z,79.27
2017-02-27T07:00:35.864Z,79.55
2017-02-27T07:01:45.353Z,78.69
2017-02-27T07:02:54.830Z,77.64
2017-02-27T07:04:04.318Z,76.82
2017-02-27T07:05:13.807Z,76.54
2017-02-27T07:06:22.522Z,76.44
2017-02-27T07:07:32.001Z,76.16
2017-02-27T07:08:41.480Z,75.3
2017-02-27T07:09:50.935Z,75.01
2017-02-27T07:11:00.782Z,74.63
2017-02-27T07:12:10.252Z,74.25
2017-02-27T07:13:19.361Z,73.68
2017-02-27T07:14:29.221Z,73.77
2017-02-27T07:15:39.078Z,72.92
2017-02-27T07:16:48.164Z,72.34
2017-02-27T07:17:57.640Z,73.11
2017-02-27T07:19:07.129Z,73.3
2017-02-27T07:20:17.011Z,73.77
2017-02-27T07:21:26.484Z,73.87
2017-02-27T07:22:36.361Z,76.35
2017-02-27T07:23:45.449Z,75.4
2017-02-27T07:24:54.934Z,74.73
2017-02-27T07:26:04.799Z,74.92
2017-02-27T07:27:14.271Z,73.77
2017-02-27T07:28:23.732Z,74.44
2017-02-27T07:29:32.824Z,74.82
2017-02-27T07:30:43.055Z,73.11
2017-02-27T07:31:52.918Z,74.25
2017-02-27T07:33:02.030Z,75.78
2017-02-27T07:34:11.504Z,74.44
2017-02-27T07:35:21.357Z,73.96
2017-02-27T07:36:30.099Z,73.96
2017-02-27T07:37:39.562Z,74.82
2017-02-27T07:38:48.650Z,75.49
2017-02-27T07:39:57.374Z,75.78
2017-02-27T07:41:07.230Z,75.2
2017-02-27T07:42:16.691Z,75.01
2017-02-27T07:43:26.168Z,74.16
2017-02-27T07:44:35.262Z,73.49
2017-02-27T07:45:44.735Z,72.82
2017-02-27T07:46:55.372Z,73.68
2017-02-27T07:48:04.497Z,72.92
2017-02-27T07:49:13.972Z,73.01
2017-02-27T07:50:23.449Z,73.58
2017-02-27T07:51:32.155Z,73.77
2017-02-27T07:52:41.724Z,73.58
2017-02-27T07:53:51.573Z,73.68
2017-02-27T07:55:00.669Z,73.68
2017-02-27T07:56:10.161Z,73.49
2017-02-27T07:57:20.050Z,73.58
2017-02-27T07:58:29.131Z,73.39
2017-02-27T07:59:38.222Z,73.77
2017-02-27T08:00:47.701Z,73.68
2017-02-27T08:01:57.160Z,73.49
2017-02-27T08:03:07.028Z,74.25
2017-02-27T08:04:16.112Z,74.44
2017-02-27T08:05:25.206Z,74.54
2017-02-27T08:06:35.065Z,74.06
2017-02-27T08:07:44.542Z,74.73
2017-02-27T08:08:54.017Z,74.92
2017-02-27T08:10:03.880Z,75.11
2017-02-27T08:11:13.341Z,75.59
2017-02-27T08:12:23.200Z,75.59
2017-02-27T08:13:32.661Z,75.59
2017-02-27T08:14:43.274Z,75.49
2017-02-27T08:15:53.156Z,75.59
2017-02-27T08:17:02.233Z,75.68
2017-02-27T08:18:11.325Z,75.87
2017-02-27T08:19:20.420Z,75.59
2017-02-27T08:20:29.503Z,75.78
2017-02-27T08:21:38.592Z,76.16
2017-02-27T08:22:48.068Z,76.06
2017-02-27T08:23:57.916Z,76.06
2017-02-27T08:25:06.985Z,76.16
2017-02-27T08:26:16.475Z,76.25
2017-02-27T08:27:26.738Z,76.64
2017-02-27T08:28:36.210Z,76.06
2017-02-27T08:29:46.061Z,76.54
2017-02-27T08:30:55.544Z,76.57
2017-02-27T08:32:05.033Z,76.2
2017-02-27T08:33:14.877Z,76.01
2017-02-27T08:34:24.788Z,75.72
2017-02-27T08:35:35.415Z,74.96
2017-02-27T08:36:44.887Z,74.38
2017-02-27T08:37:54.749Z,74.29
2017-02-27T08:39:04.244Z,74.42
2017-02-27T08:40:14.105Z,74.8
2017-02-27T08:41:23.581Z,74.23
2017-02-27T08:42:33.454Z,74.19
2017-02-27T08:43:43.350Z,74.48
2017-02-27T08:44:53.580Z,73.81
2017-02-27T08:46:03.439Z,73.91
2017-02-27T08:47:12.902Z,74.01
2017-02-27T08:48:22.755Z,73.37
2017-02-27T08:49:32.234Z,73.72
2017-02-27T08:50:41.316Z,72.67
2017-02-27T08:51:50.801Z,73.18
2017-02-27T08:53:00.277Z,74.32
2017-02-27T08:54:10.144Z,74.42
2017-02-27T08:55:19.277Z,74.13
2017-02-27T08:56:29.134Z,73.56
2017-02-27T08:57:38.617Z,74.29
2017-02-27T08:58:48.101Z,74.86
2017-02-27T08:59:57.213Z,76.33
2017-02-27T09:01:06.687Z,75.37
2017-02-27T09:02:15.807Z,75.09
2017-02-27T09:03:25.337Z,75.95
2017-02-27T09:04:34.432Z,75.18
2017-02-27T09:05:45.057Z,75.57
2017-02-27T09:06:55.289Z,76.14
2017-02-27T09:08:05.518Z,75.95
2017-02-27T09:09:15.377Z,75.37
2017-02-27T09:10:24.094Z,74.52
2017-02-27T09:11:34.348Z,75.09
2017-02-27T09:12:44.969Z,74.77
2017-02-27T09:13:54.450Z,74.48
2017-02-27T09:15:03.950Z,73.81
2017-02-27T09:16:13.431Z,74.38
2017-02-27T09:17:22.915Z,74.57
2017-02-27T09:18:32.782Z,74.77
2017-02-27T09:19:42.665Z,74.48
2017-02-27T09:20:52.519Z,74.29
2017-02-27T09:22:01.996Z,73.81
2017-02-27T09:23:11.480Z,73.81
2017-02-27T09:24:21.347Z,73.52
2017-02-27T09:25:30.797Z,73.91
2017-02-27T09:26:45.911Z,73.72
2017-02-27T09:27:56.224Z,73.43
2017-02-27T09:29:06.098Z,72.76
2017-02-27T09:30:15.582Z,72.28
2017-02-27T09:31:25.068Z,72.86
2017-02-27T09:32:34.180Z,72.38
2017-02-27T09:33:42.889Z,71.43
2017-02-27T09:34:52.774Z,71.33
2017-02-27T09:36:03.026Z,69.81
2017-02-27T09:37:12.513Z,70.28
2017-02-27T09:38:21.978Z,70.38
2017-02-27T09:39:31.862Z,69.14
2017-02-27T09:40:41.346Z,68.6
2017-02-27T09:41:50.450Z,68.12
2017-02-27T09:42:59.175Z,67.27
2017-02-27T09:44:09.044Z,67.55
2017-02-27T09:45:18.140Z,67.65
2017-02-27T09:46:28.423Z,67.36
2017-02-27T09:47:38.670Z,66.88
2017-02-27T09:48:48.372Z,66.78
2017-02-27T09:49:57.836Z,66.38
2017-02-27T09:51:07.682Z,66.78
2017-02-27T09:52:16.788Z,66.22
2017-02-27T09:53:25.895Z,65.64
2017-02-27T09:54:35.364Z,65.83
2017-02-27T09:55:44.826Z,64.97
2017-02-27T09:56:54.717Z,64.4
2017-02-27T09:58:04.576Z,64.21
2017-02-27T09:59:14.055Z,63.92
2017-02-27T10:00:22.781Z,63.83
2017-02-27T10:01:33.036Z,64.4
2017-02-27T10:02:42.891Z,63.67
2017-02-27T10:03:53.126Z,64.15
2017-02-27T10:05:02.619Z,63.76
2017-02-27T10:06:12.094Z,63.96
2017-02-27T10:07:21.976Z,63.39
2017-02-27T10:08:32.216Z,64.43
2017-02-27T10:09:41.318Z,64.43
2017-02-27T10:10:51.178Z,63.48
2017-02-27T10:12:00.655Z,63.76
2017-02-27T10:13:10.132Z,64.25
2017-02-27T10:14:20.383Z,64.43
2017-02-27T10:15:30.233Z,64.91
2017-02-27T10:16:38.968Z,64.72
2017-02-27T10:17:48.854Z,64.34
2017-02-27T10:18:59.116Z,65.39
2017-02-27T10:20:08.593Z,65.87
2017-02-27T10:21:18.836Z,65.74
2017-02-27T10:22:28.306Z,65.74
2017-02-27T10:23:37.403Z,66.41
2017-02-27T10:24:46.878Z,66.98
2017-02-27T10:25:56.746Z,66.88
2017-02-27T10:27:06.227Z,66.98
2017-02-27T10:28:16.101Z,67.83
2017-02-27T10:29:25.973Z,68.6
2017-02-27T10:30:36.221Z,70.13
2017-02-27T10:31:45.317Z,69.56
2017-02-27T10:32:55.227Z,69.84
2017-02-27T10:34:05.102Z,67.93
2017-02-27T10:35:14.205Z,68.7
2017-02-27T10:36:23.680Z,68.98
2017-02-27T10:37:33.915Z,70.32
2017-02-27T10:38:44.182Z,70.79
2017-02-27T10:39:54.434Z,70.51
2017-02-27T10:41:03.908Z,69.37
2017-02-27T10:42:13.000Z,68.79
2017-02-27T10:43:22.104Z,69.17
2017-02-27T10:44:30.819Z,70.98
2017-02-27T10:45:40.300Z,69.74
2017-02-27T10:46:50.169Z,68.98
2017-02-27T10:47:59.248Z,69.08
2017-02-27T10:49:09.499Z,69.65
2017-02-27T10:50:19.370Z,69.84
2017-02-27T10:51:28.451Z,70.32
2017-02-27T10:52:37.548Z,70.32
2017-02-27T10:53:47.431Z,67.83
2017-02-27T10:54:58.088Z,67.46
2017-02-27T10:56:08.329Z,66.6
2017-02-27T10:57:18.580Z,66.88
2017-02-27T10:58:27.690Z,66.78
2017-02-27T10:59:37.557Z,66.69
2017-02-27T11:00:47.446Z,66.78
2017-02-27T11:01:57.297Z,65.93
2017-02-27T11:03:06.007Z,65.93
2017-02-27T11:04:15.874Z,66.02
2017-02-27T11:05:25.335Z,65.55
2017-02-27T11:06:34.808Z,65.45
2017-02-27T11:07:44.678Z,65.83
2017-02-27T11:08:53.800Z,65.55
2017-02-27T11:10:03.678Z,65.17
2017-02-27T11:11:13.529Z,65.17
2017-02-27T11:12:22.243Z,65.36
2017-02-27T11:13:30.939Z,65.17
2017-02-27T11:14:40.031Z,65.55
2017-02-27T11:15:49.927Z,65.93
2017-02-27T11:17:00.181Z,66.6
2017-02-27T11:18:09.652Z,66.22
2017-02-27T11:19:18.740Z,66.12
2017-02-27T11:20:28.981Z,66.22
2017-02-27T11:21:38.858Z,66.69
2017-02-27T11:22:48.782Z,66.5
2017-02-27T11:23:57.879Z,66.69
2017-02-27T11:25:08.129Z,66.5
2017-02-27T11:26:17.624Z,67.07
2017-02-27T11:27:27.129Z,66.6
2017-02-27T11:28:37.003Z,66.6
2017-02-27T11:29:46.477Z,67.36
2017-02-27T11:30:55.964Z,67.36
2017-02-27T11:32:05.465Z,68.32
2017-02-27T11:33:14.959Z,67.58
2017-02-27T11:34:24.439Z,66.53
2017-02-27T11:35:33.959Z,66.82
2017-02-27T11:36:43.051Z,66.82
2017-02-27T11:37:52.144Z,66
2017-02-27T11:39:01.640Z,65.9
2017-02-27T11:40:11.133Z,65.8
2017-02-27T11:41:20.592Z,66.15
2017-02-27T11:42:30.467Z,66.63
2017-02-27T11:43:40.731Z,67.21
2017-02-27T11:44:50.247Z,67.4
2017-02-27T11:46:00.133Z,67.87
2017-02-27T11:47:10.005Z,67.4
2017-02-27T11:48:19.873Z,67.49
2017-02-27T11:49:29.347Z,66.72
2017-02-27T11:50:38.803Z,66.15
2017-02-27T11:51:47.899Z,65.96
2017-02-27T11:52:56.599Z,66.15
2017-02-27T11:54:05.682Z,66.72
2017-02-27T11:55:15.561Z,66.92
2017-02-27T11:56:25.427Z,65.87
2017-02-27T11:57:35.664Z,65.45
2017-02-27T11:58:45.526Z,65.74
2017-02-27T11:59:55.028Z,65.17
2017-02-27T12:01:04.140Z,65.45
2017-02-27T12:02:13.238Z,65.83
2017-02-27T12:03:23.473Z,65.55
2017-02-27T12:04:32.591Z,65.83
2017-02-27T12:05:42.053Z,65.17
2017-02-27T12:06:51.544Z,64.81
2017-02-27T12:08:01.400Z,64.81
2017-02-27T12:09:11.248Z,63.67
2017-02-27T12:10:21.125Z,63.29
2017-02-27T12:11:30.982Z,63.96
2017-02-27T12:12:40.469Z,63.96
2017-02-27T12:13:49.950Z,63.73
2017-02-27T12:14:59.453Z,64.62
2017-02-27T12:16:08.951Z,64.59
2017-02-27T12:17:18.436Z,65.87
2017-02-27T12:18:27.911Z,66.72
2017-02-27T12:19:37.761Z,65.39
2017-02-27T12:20:47.265Z,65.3
2017-02-27T12:21:57.115Z,67.01
2017-02-27T12:23:06.206Z,65.1
2017-02-27T12:24:15.301Z,66.15
2017-02-27T12:25:25.557Z,64.91
2017-02-27T12:26:35.019Z,64.62
2017-02-27T12:27:44.882Z,63.76
2017-02-27T12:28:54.738Z,63.48
2017-02-27T12:30:04.239Z,64.15
2017-02-27T12:31:14.093Z,64.53
2017-02-27T12:32:23.972Z,65.1
2017-02-27T12:33:33.093Z,65.1
2017-02-27T12:34:42.952Z,64.53
2017-02-27T12:35:53.184Z,65.3
2017-02-27T12:37:02.274Z,63.96
2017-02-27T12:38:12.525Z,63.57
2017-02-27T12:39:21.639Z,63.96
2017-02-27T12:40:31.136Z,64.43
2017-02-27T12:41:41.383Z,63.96
2017-02-27T12:42:51.613Z,64.31
2017-02-27T12:44:01.091Z,64.43
2017-02-27T12:45:10.191Z,64.12
2017-02-27T12:46:20.054Z,64.69
2017-02-27T12:47:29.151Z,64.69
2017-02-27T12:48:38.646Z,64.31
2017-02-27T12:49:48.119Z,63.67
2017-02-27T12:50:56.829Z,63.86
2017-02-27T12:52:05.537Z,63.76
2017-02-27T12:53:14.650Z,63.96
2017-02-27T12:54:24.497Z,64.25
2017-02-27T12:55:34.351Z,63.96
2017-02-27T12:56:43.839Z,63.96
2017-02-27T12:57:53.323Z,64.34
2017-02-27T12:59:03.204Z,64.43
2017-02-27T13:00:12.310Z,63.96
2017-02-27T13:01:21.422Z,64.53
2017-02-27T13:02:30.506Z,64.62
2017-02-27T13:03:39.227Z,63.86
2017-02-27T13:04:49.102Z,63.57
2017-02-27T13:05:58.201Z,63.29
2017-02-27T13:07:08.461Z,63.2
2017-02-27T13:08:18.320Z,64.53
2017-02-27T13:09:27.423Z,64.72
2017-02-27T13:10:37.685Z,64.43
2017-02-27T13:11:47.147Z,64.25
2017-02-27T13:12:56.999Z,65.01
2017-02-27T13:14:06.854Z,63.96
2017-02-27T13:15:16.721Z,63.96
2017-02-27T13:16:26.191Z,64.25
2017-02-27T13:17:35.301Z,64.43
2017-02-27T13:18:45.188Z,63.76
2017-02-27T13:19:54.665Z,64.05
2017-02-27T13:21:04.905Z,63.96
2017-02-27T13:22:15.162Z,64.34
2017-02-27T13:23:25.035Z,64.62
2017-02-27T13:24:34.136Z,63.96
2017-02-27T13:25:42.853Z,64.05
2017-02-27T13:26:52.342Z,63.2
2017-02-27T13:28:01.836Z,64.15
2017-02-27T13:29:11.313Z,64.43
2017-02-27T13:30:20.807Z,63.96
2017-02-27T13:31:29.938Z,63.48
2017-02-27T13:32:39.829Z,63.76
2017-02-27T13:33:49.686Z,62.43
2017-02-27T13:34:58.788Z,63.1
2017-02-27T13:36:08.662Z,63
2017-02-27T13:37:18.892Z,63.96
2017-02-27T13:38:28.371Z,63.29
2017-02-27T13:39:37.465Z,63.2
2017-02-27T13:40:46.608Z,63
2017-02-27T13:41:56.860Z,63.67
2017-02-27T13:43:07.488Z,63.6
2017-02-27T13:44:16.963Z,63.6
2017-02-27T13:45:26.436Z,61.95
2017-02-27T13:46:36.703Z,61.89
2017-02-27T13:47:46.583Z,62.34
2017-02-27T13:48:55.672Z,62.55
2017-02-27T13:50:06.338Z,62.08
2017-02-27T13:51:15.466Z,62.08
2017-02-27T13:52:24.561Z,61.89
2017-02-27T13:53:34.429Z,61.41
2017-02-27T13:54:44.699Z,61.69
2017-02-27T13:55:54.163Z,61.76
2017-02-27T13:57:03.695Z,62.43
2017-02-27T13:58:13.183Z,62.43
2017-02-27T13:59:22.705Z,62.62
2017-02-27T14:00:32.575Z,63.2
2017-02-27T14:01:42.448Z,63.67
2017-02-27T14:02:52.679Z,63.2
2017-02-27T14:04:02.536Z,62.34
2017-02-27T14:05:11.261Z,62.24
2017-02-27T14:06:20.739Z,62.62
2017-02-27T14:07:30.228Z,62.18
2017-02-27T14:08:38.930Z,61.41
2017-02-27T14:09:48.044Z,61.32
2017-02-27T14:10:57.930Z,61.98
2017-02-27T14:12:07.024Z,62.27
2017-02-27T14:13:16.898Z,62.18
2017-02-27T14:14:26.782Z,61.98
2017-02-27T14:15:36.639Z,62.37
2017-02-27T14:16:46.883Z,62.46
2017-02-27T14:17:56.343Z,61.98
2017-02-27T14:19:06.207Z,61.89
2017-02-27T14:20:15.691Z,61.25
2017-02-27T14:21:25.184Z,59.72
2017-02-27T14:22:35.438Z,59.88
2017-02-27T14:23:45.741Z,60.77
2017-02-27T14:24:55.620Z,60.58
2017-02-27T14:26:05.099Z,60.93
2017-02-27T14:27:15.015Z,60.46
2017-02-27T14:28:24.876Z,60.64
2017-02-27T14:29:34.331Z,61.89
2017-02-27T14:30:43.806Z,61.69
2017-02-27T14:31:52.892Z,61.89
2017-02-27T14:33:02.373Z,62.08
2017-02-27T14:34:11.884Z,62.24
2017-02-27T14:35:20.982Z,62.52
2017-02-27T14:36:30.845Z,62.15
2017-02-27T14:37:39.938Z,62.15
2017-02-27T14:38:49.840Z,62.24
2017-02-27T14:39:59.313Z,62.24
2017-02-27T14:41:09.210Z,61.76
2017-02-27T14:42:18.674Z,62.43
2017-02-27T14:43:27.374Z,62.24
2017-02-27T14:44:36.454Z,62.81
2017-02-27T14:45:46.331Z,62.62
2017-02-27T14:46:55.810Z,62.52
2017-02-27T14:48:04.913Z,61.86
2017-02-27T14:49:14.414Z,62.05
2017-02-27T14:50:23.886Z,61.66
2017-02-27T14:51:33.743Z,61.66
2017-02-27T14:52:43.229Z,61.86
2017-02-27T14:53:53.101Z,61.86
2017-02-27T14:55:03.336Z,61.76
2017-02-27T14:56:13.962Z,62.62
2017-02-27T14:57:23.826Z,62.62
2017-02-27T14:58:32.944Z,63.1
2017-02-27T14:59:42.038Z,63.29
2017-02-27T15:00:51.518Z,63.86
2017-02-27T15:02:01.778Z,63.35
2017-02-27T15:03:10.889Z,63.76
2017-02-27T15:04:20.754Z,63.73
2017-02-27T15:05:30.216Z,64.97
2017-02-27T15:06:39.310Z,66.6
2017-02-27T15:07:49.170Z,67.83
2017-02-27T15:08:59.402Z,68.79
2017-02-27T15:10:09.251Z,69.81
2017-02-27T15:11:18.391Z,71.33
2017-02-27T15:12:27.473Z,72.76
2017-02-27T15:13:36.950Z,72.96
2017-02-27T15:14:46.453Z,73.87
2017-02-27T15:15:55.553Z,74.35
2017-02-27T15:17:05.040Z,75.3